createdAt,value
2023-05-16T00:01:14.957Z,6.37
2023-05-16T00:04:00.254Z,7.37
2023-05-16T00:06:46.125Z,6.20
2023-05-16T00:09:31.364Z,5.53
2023-05-16T00:12:17.845Z,8.17
2023-05-16T00:15:05.377Z,6.30
2023-05-16T00:17:51.924Z,5.30
2023-05-16T00:20:37.632Z,5.40
2023-05-16T00:23:23.366Z,5.77
2023-05-16T00:26:08.831Z,6.37
2023-05-16T00:28:54.253Z,5.27
2023-05-16T00:31:39.503Z,5.00
2023-05-16T00:34:24.834Z,7.17
2023-05-16T00:37:11.184Z,6.97
2023-05-16T00:39:56.508Z,5.77
2023-05-16T00:42:41.904Z,5.70
2023-05-16T00:45:27.268Z,5.77
2023-05-16T00:48:15.104Z,5.20
2023-05-16T00:51:01.924Z,5.77
2023-05-16T00:53:47.315Z,5.13
2023-05-16T00:56:33.990Z,5.57
2023-05-16T00:59:20.407Z,5.17
2023-05-16T01:02:06.012Z,5.17
2023-05-16T01:04:51.908Z,5.47
2023-05-16T01:07:37.446Z,5.40
2023-05-16T01:10:23.601Z,4.93
2023-05-16T01:13:18.377Z,6.13
2023-05-16T01:16:31.614Z,5.97
2023-05-16T01:19:47.344Z,5.20
2023-05-16T01:22:47.757Z,5.27
2023-05-16T01:25:56.690Z,5.30
2023-05-16T01:28:44.350Z,5.33
2023-05-16T01:31:30.471Z,8.27
2023-05-16T01:34:16.153Z,5.50
2023-05-16T01:37:19.807Z,5.50
2023-05-16T01:40:12.871Z,6.83
2023-05-16T01:43:03.092Z,5.35
2023-05-16T01:45:55.297Z,5.27
2023-05-16T01:49:13.285Z,6.28
2023-05-16T01:52:02.346Z,5.20
2023-05-16T01:54:48.730Z,5.37
2023-05-16T01:57:35.566Z,7.57
2023-05-16T02:00:21.536Z,5.20
2023-05-16T02:03:07.235Z,5.50
2023-05-16T02:05:52.502Z,5.60
2023-05-16T02:08:37.891Z,5.60
2023-05-16T02:11:23.302Z,8.10
2023-05-16T02:14:08.726Z,5.57
2023-05-16T02:16:54.933Z,5.13
2023-05-16T02:19:40.632Z,5.60
2023-05-16T02:22:26.093Z,5.20
2023-05-16T02:25:12.476Z,5.90
2023-05-16T02:27:59.970Z,6.53
2023-05-16T02:30:45.509Z,5.47
2023-05-16T02:33:31.074Z,7.33
2023-05-16T02:36:16.628Z,5.37
2023-05-16T02:39:04.160Z,5.00
2023-05-16T02:41:49.498Z,5.63
2023-05-16T02:44:35.013Z,5.70
2023-05-16T02:47:20.443Z,5.73
2023-05-16T02:50:06.356Z,5.73
2023-05-16T02:52:53.618Z,26.53
2023-05-16T02:55:39.079Z,40.57
2023-05-16T02:58:26.199Z,28.50
2023-05-16T03:01:11.664Z,13.73
2023-05-16T03:03:57.477Z,14.80
2023-05-16T03:06:43.268Z,24.23
2023-05-16T03:09:28.883Z,18.33
2023-05-16T03:12:15.584Z,19.40
2023-05-16T03:15:01.975Z,20.10
2023-05-16T03:17:48.100Z,19.73
2023-05-16T03:20:33.485Z,22.80
2023-05-16T03:23:22.409Z,16.70
2023-05-16T03:26:07.994Z,12.10
2023-05-16T03:28:53.567Z,13.27
2023-05-16T03:31:39.299Z,15.87
2023-05-16T03:34:24.925Z,11.80
2023-05-16T03:37:11.184Z,13.30
2023-05-16T03:39:56.920Z,14.03
2023-05-16T03:42:42.258Z,15.87
2023-05-16T03:45:27.784Z,13.77
2023-05-16T03:48:15.130Z,13.97
2023-05-16T03:51:01.652Z,13.80
2023-05-16T03:53:47.115Z,12.07
2023-05-16T03:56:32.325Z,13.27
2023-05-16T03:59:18.261Z,14.60
2023-05-16T04:02:04.099Z,11.13
2023-05-16T04:04:49.712Z,13.70
2023-05-16T04:07:35.125Z,10.63
2023-05-16T04:10:20.848Z,10.27
2023-05-16T04:13:07.246Z,9.33
2023-05-16T04:15:52.767Z,9.40
2023-05-16T04:18:38.472Z,9.70
2023-05-16T04:21:24.024Z,9.57
2023-05-16T04:24:09.351Z,8.73
2023-05-16T04:26:55.627Z,9.20
2023-05-16T04:29:41.145Z,11.93
2023-05-16T04:32:28.830Z,10.27
2023-05-16T04:35:14.750Z,9.73
2023-05-16T04:38:00.281Z,13.23
2023-05-16T04:40:45.709Z,12.53
2023-05-16T04:43:31.247Z,8.53
2023-05-16T04:46:16.627Z,10.50
2023-05-16T04:49:02.126Z,9.00
2023-05-16T04:51:48.838Z,10.40
2023-05-16T04:54:34.604Z,9.47
2023-05-16T04:57:20.258Z,8.83
2023-05-16T05:00:12.172Z,8.20
2023-05-16T05:02:57.702Z,9.63
2023-05-16T05:05:43.115Z,9.37
2023-05-16T05:08:28.318Z,17.53
2023-05-16T05:11:13.555Z,18.37
2023-05-16T05:13:58.827Z,11.93
2023-05-16T05:16:44.125Z,14.60
2023-05-16T05:19:29.576Z,13.83
2023-05-16T05:22:15.269Z,9.63
2023-05-16T05:25:00.962Z,10.87
2023-05-16T05:27:46.405Z,11.27
2023-05-16T05:30:32.261Z,10.63
2023-05-16T05:33:20.644Z,12.63
2023-05-16T05:36:06.344Z,9.83
2023-05-16T05:38:51.922Z,10.43
2023-05-16T05:41:38.046Z,10.87
2023-05-16T05:44:23.538Z,10.77
2023-05-16T05:47:08.945Z,14.60
2023-05-16T05:49:54.283Z,11.07
2023-05-16T05:52:39.958Z,10.57
2023-05-16T05:55:25.920Z,11.43
2023-05-16T05:58:11.587Z,12.23
2023-05-16T06:00:56.887Z,10.40
2023-05-16T06:03:42.907Z,12.87
2023-05-16T06:06:28.335Z,10.57
2023-05-16T06:09:15.129Z,12.83
2023-05-16T06:12:00.327Z,12.63
2023-05-16T06:14:45.700Z,12.67
2023-05-16T06:17:31.192Z,11.03
2023-05-16T06:20:16.725Z,13.97
2023-05-16T06:23:02.632Z,12.47
2023-05-16T06:25:48.045Z,12.60
2023-05-16T06:28:33.358Z,13.47
2023-05-16T06:31:18.700Z,14.53
2023-05-16T06:34:04.342Z,14.40
2023-05-16T06:36:49.880Z,15.20
2023-05-16T06:39:34.988Z,18.40
2023-05-16T06:42:20.707Z,16.70
2023-05-16T06:45:08.987Z,19.60
2023-05-16T06:47:57.417Z,18.60
2023-05-16T06:50:42.851Z,17.77
2023-05-16T06:53:28.791Z,19.73
2023-05-16T06:56:14.005Z,22.63
2023-05-16T06:59:01.727Z,20.37
2023-05-16T07:01:47.238Z,19.80
2023-05-16T07:04:32.976Z,20.30
2023-05-16T07:07:18.358Z,19.53
2023-05-16T07:10:04.322Z,18.37
2023-05-16T07:12:49.941Z,19.70
2023-05-16T07:15:35.379Z,16.60
2023-05-16T07:18:24.124Z,15.53
2023-05-16T07:21:09.442Z,14.20
2023-05-16T07:23:54.956Z,14.80
2023-05-16T07:26:40.412Z,13.87
2023-05-16T07:29:27.120Z,13.70
2023-05-16T07:32:12.569Z,12.50
2023-05-16T07:34:57.803Z,11.53
2023-05-16T07:37:43.623Z,11.57
2023-05-16T07:40:29.560Z,11.60
2023-05-16T07:43:15.000Z,11.77
2023-05-16T07:46:01.829Z,11.03
2023-05-16T07:48:47.643Z,11.33
2023-05-16T07:51:33.484Z,10.03
2023-05-16T07:54:18.750Z,12.57
2023-05-16T07:57:04.259Z,9.73
2023-05-16T07:59:52.436Z,9.37
2023-05-16T08:02:38.557Z,8.87
2023-05-16T08:05:24.533Z,8.67
2023-05-16T08:08:09.985Z,9.50
2023-05-16T08:10:55.460Z,8.77
2023-05-16T08:13:40.882Z,8.60
2023-05-16T08:16:26.257Z,8.60
2023-05-16T08:19:12.168Z,7.27
2023-05-16T08:21:57.387Z,9.10
2023-05-16T08:24:42.765Z,7.57
2023-05-16T08:27:28.921Z,8.93
2023-05-16T08:30:14.972Z,10.73
2023-05-16T08:33:04.812Z,9.90
2023-05-16T08:35:52.988Z,9.37
2023-05-16T08:38:38.241Z,9.23
2023-05-16T08:41:23.965Z,9.80
2023-05-16T08:44:12.430Z,9.77
2023-05-16T08:47:02.071Z,9.43
2023-05-16T08:49:52.419Z,9.37
2023-05-16T08:52:40.190Z,10.23
2023-05-16T08:55:27.384Z,9.37
2023-05-16T08:58:13.508Z,9.27
2023-05-16T09:00:58.816Z,8.43
2023-05-16T09:03:44.621Z,8.53
2023-05-16T09:06:30.298Z,8.83
2023-05-16T09:09:15.840Z,7.53
2023-05-16T09:12:01.353Z,9.17
2023-05-16T09:14:47.470Z,7.03
2023-05-16T09:17:42.551Z,7.27
2023-05-16T09:20:28.776Z,8.63
2023-05-16T09:23:14.521Z,6.90
2023-05-16T09:25:59.834Z,5.93
2023-05-16T09:28:45.377Z,5.77
2023-05-16T09:31:36.887Z,6.27
2023-05-16T09:34:22.874Z,5.70
2023-05-16T09:37:10.299Z,6.10
2023-05-16T09:39:55.852Z,7.23
2023-05-16T09:42:44.444Z,5.50
2023-05-16T09:45:30.821Z,7.40
2023-05-16T09:48:18.122Z,5.30
2023-05-16T09:51:06.236Z,6.93
2023-05-16T09:53:51.976Z,4.40
2023-05-16T09:56:50.282Z,6.10
2023-05-16T09:59:37.256Z,5.40
2023-05-16T10:02:23.327Z,5.53
2023-05-16T10:05:08.855Z,5.23
2023-05-16T10:07:56.790Z,4.17
2023-05-16T10:10:42.715Z,5.63
2023-05-16T10:13:33.218Z,5.20
2023-05-16T10:16:21.864Z,4.80
2023-05-16T10:19:07.453Z,4.43
2023-05-16T10:22:00.997Z,4.60
2023-05-16T10:27:54.229Z,3.97
2023-05-16T10:30:44.093Z,4.57
2023-05-16T10:33:29.863Z,3.70
2023-05-16T10:36:16.483Z,3.60
2023-05-16T10:39:02.619Z,4.07
2023-05-16T10:41:48.413Z,4.70
2023-05-16T10:44:34.239Z,5.20
2023-05-16T10:47:20.348Z,6.23
2023-05-16T10:50:06.494Z,3.50
2023-05-16T10:52:52.986Z,3.93
2023-05-16T10:56:06.231Z,3.70
2023-05-16T10:58:53.881Z,4.50
2023-05-16T11:01:41.415Z,4.93
2023-05-16T11:04:45.992Z,3.43
2023-05-16T11:07:36.901Z,3.43
2023-05-16T11:10:22.465Z,4.50
2023-05-16T11:13:08.518Z,4.27
2023-05-16T11:16:29.353Z,3.97
2023-05-16T11:19:28.075Z,5.63
2023-05-16T11:22:19.587Z,4.53
2023-05-16T11:25:07.397Z,5.23
2023-05-16T11:27:52.656Z,3.47
2023-05-16T11:30:43.077Z,4.10
2023-05-16T11:33:34.372Z,4.83
2023-05-16T11:36:20.034Z,3.77
2023-05-16T11:39:10.232Z,5.27
2023-05-16T11:41:56.202Z,4.63
2023-05-16T11:44:42.165Z,4.43
2023-05-16T11:47:29.907Z,3.50
2023-05-16T11:50:22.980Z,3.97
2023-05-16T11:55:58.136Z,5.20
2023-05-16T11:58:45.702Z,5.87
2023-05-16T12:01:39.225Z,4.23
2023-05-16T12:04:25.081Z,3.58
2023-05-16T12:07:10.600Z,4.13
2023-05-16T12:09:56.038Z,2.80
2023-05-16T12:12:44.986Z,3.30
2023-05-16T12:15:31.090Z,4.10
2023-05-16T12:18:17.373Z,3.53
2023-05-16T12:21:02.851Z,5.57
2023-05-16T12:23:48.207Z,7.63
2023-05-16T12:26:33.928Z,7.40
2023-05-16T12:29:21.693Z,4.77
2023-05-16T12:32:08.969Z,4.43
2023-05-16T12:34:54.835Z,4.30
2023-05-16T12:37:40.337Z,3.80
2023-05-16T12:40:33.171Z,7.30
2023-05-16T12:43:21.810Z,3.73
2023-05-16T12:46:14.909Z,3.63
2023-05-16T12:49:06.501Z,3.00
2023-05-16T12:52:01.085Z,4.80
2023-05-16T12:54:48.397Z,3.03
2023-05-16T12:57:35.068Z,4.57
2023-05-16T13:00:21.738Z,2.60
2023-05-16T13:03:10.130Z,4.80
2023-05-16T13:05:55.419Z,3.00
2023-05-16T13:08:40.651Z,6.33
2023-05-16T13:11:26.393Z,4.40
2023-05-16T13:14:11.697Z,3.33
2023-05-16T13:16:56.886Z,4.60
2023-05-16T13:19:42.338Z,5.87
2023-05-16T13:22:27.667Z,4.30
2023-05-16T13:25:13.106Z,6.43
2023-05-16T13:27:58.404Z,2.80
2023-05-16T13:30:43.602Z,2.73
2023-05-16T13:33:29.215Z,4.27
2023-05-16T13:36:14.937Z,5.97
2023-05-16T13:39:00.261Z,4.73
2023-05-16T13:41:47.375Z,5.97
2023-05-16T13:44:38.137Z,3.93
2023-05-16T13:47:26.192Z,5.20
2023-05-16T13:50:12.270Z,4.23
2023-05-16T13:52:58.012Z,6.87
2023-05-16T13:55:43.507Z,4.07
2023-05-16T13:58:28.874Z,8.50
2023-05-16T14:01:14.808Z,5.37
2023-05-16T14:04:00.358Z,4.93
2023-05-16T14:06:45.564Z,6.27
2023-05-16T14:09:31.686Z,5.63
2023-05-16T14:12:17.325Z,3.47
2023-05-16T14:15:02.593Z,4.60
2023-05-16T14:17:48.122Z,6.90
2023-05-16T14:20:33.686Z,4.97
2023-05-16T14:23:18.880Z,4.90
2023-05-16T14:26:06.984Z,5.10
2023-05-16T14:28:53.269Z,4.77
2023-05-16T14:31:38.581Z,6.87
2023-05-16T14:34:24.416Z,5.63
2023-05-16T14:37:11.883Z,3.90
2023-05-16T14:39:57.764Z,4.07
2023-05-16T14:42:43.333Z,7.57
2023-05-16T14:45:29.359Z,3.00
2023-05-16T14:48:14.953Z,3.53
2023-05-16T14:51:00.807Z,5.67
2023-05-16T14:53:47.312Z,4.20
2023-05-16T14:56:32.761Z,4.87
2023-05-16T14:59:17.865Z,3.20
2023-05-16T15:02:04.076Z,3.60
2023-05-16T15:04:49.810Z,3.93
2023-05-16T15:07:35.517Z,4.07
2023-05-16T15:10:20.998Z,4.60
2023-05-16T15:13:06.479Z,3.17
2023-05-16T15:15:52.437Z,3.97
2023-05-16T15:18:38.106Z,3.77
2023-05-16T15:21:23.962Z,4.67
2023-05-16T15:24:09.529Z,5.60
2023-05-16T15:26:55.538Z,2.80
2023-05-16T15:29:41.240Z,3.13
2023-05-16T15:32:26.982Z,4.37
2023-05-16T15:35:12.501Z,3.37
2023-05-16T15:37:59.750Z,3.07
2023-05-16T15:40:45.235Z,3.63
2023-05-16T15:43:30.549Z,5.23
2023-05-16T15:46:16.204Z,7.53
2023-05-16T15:49:01.638Z,18.03
2023-05-16T15:51:47.747Z,35.53
2023-05-16T15:54:33.657Z,26.97
2023-05-16T15:57:19.296Z,26.83
2023-05-16T16:00:05.790Z,25.73
2023-05-16T16:02:57.595Z,33.93
2023-05-16T16:05:43.067Z,38.67
2023-05-16T16:08:28.280Z,50.50
2023-05-16T16:11:13.504Z,55.17
2023-05-16T16:13:58.975Z,48.67
2023-05-16T16:16:45.469Z,42.73
2023-05-16T16:19:32.507Z,35.50
2023-05-16T16:22:17.692Z,28.47
2023-05-16T16:25:03.047Z,28.80
2023-05-16T16:27:48.359Z,30.97
2023-05-16T16:30:34.094Z,30.30
2023-05-16T16:33:19.697Z,27.27
2023-05-16T16:36:06.135Z,25.70
2023-05-16T16:38:51.487Z,29.77
2023-05-16T16:41:36.761Z,25.37
2023-05-16T16:44:22.314Z,25.07
2023-05-16T16:47:08.570Z,26.10
2023-05-16T16:50:23.403Z,23.97
2023-05-16T16:53:11.503Z,30.67
2023-05-16T16:55:57.100Z,22.53
2023-05-16T16:58:42.398Z,23.97
2023-05-16T17:01:29.863Z,23.43
2023-05-16T17:04:15.756Z,23.50
2023-05-16T17:07:01.839Z,17.60
2023-05-16T17:09:47.792Z,24.57
2023-05-16T17:12:34.550Z,18.27
2023-05-16T17:15:20.916Z,21.13
2023-05-16T17:18:09.311Z,21.20
2023-05-16T17:20:56.006Z,25.33
2023-05-16T17:23:44.359Z,19.60
2023-05-16T17:26:35.086Z,22.80
2023-05-16T17:29:21.817Z,20.57
2023-05-16T17:32:07.446Z,17.70
2023-05-16T17:34:54.406Z,14.80
2023-05-16T17:37:39.828Z,14.23
2023-05-16T17:40:25.196Z,17.17
2023-05-16T17:43:10.491Z,15.10
2023-05-16T17:45:56.044Z,15.33
2023-05-16T17:48:42.381Z,13.67
2023-05-16T17:51:28.334Z,14.77
2023-05-16T17:54:17.290Z,14.00
2023-05-16T17:57:02.978Z,13.73
2023-05-16T17:59:48.385Z,16.10
2023-05-16T18:02:36.644Z,14.53
2023-05-16T18:05:24.360Z,17.00
2023-05-16T18:08:09.719Z,14.37
2023-05-16T18:10:55.582Z,21.13
2023-05-16T18:13:41.000Z,11.93
2023-05-16T18:16:26.685Z,12.77
2023-05-16T18:20:09.548Z,13.37
2023-05-16T18:22:54.860Z,11.97
2023-05-16T18:25:40.160Z,10.03
2023-05-16T18:28:25.568Z,11.27
2023-05-16T18:31:11.744Z,12.20
2023-05-16T18:33:57.731Z,14.27
2023-05-16T18:36:43.373Z,11.57
2023-05-16T18:39:28.644Z,15.37
2023-05-16T18:42:15.898Z,12.70
2023-05-16T18:45:01.503Z,13.20
2023-05-16T18:47:47.286Z,10.60
2023-05-16T18:50:32.894Z,9.67
2023-05-16T18:53:18.324Z,11.80
2023-05-16T18:56:04.919Z,9.43
2023-05-16T18:58:50.806Z,10.20
2023-05-16T19:01:37.000Z,9.87
2023-05-16T19:04:22.574Z,12.33
2023-05-16T19:07:09.390Z,12.23
2023-05-16T19:09:54.967Z,8.53
2023-05-16T19:12:40.678Z,11.20
2023-05-16T19:15:26.388Z,11.93
2023-05-16T19:18:12.031Z,8.73
2023-05-16T19:20:57.529Z,10.47
2023-05-16T19:23:42.887Z,12.17
2023-05-16T19:26:28.560Z,11.80
2023-05-16T19:29:13.914Z,9.50
2023-05-16T19:31:59.311Z,10.07
2023-05-16T19:34:45.011Z,9.83
2023-05-16T19:37:30.922Z,8.30
2023-05-16T19:40:17.380Z,9.80
2023-05-16T19:43:03.278Z,8.70
2023-05-16T19:45:48.882Z,8.30
2023-05-16T19:48:35.297Z,10.70
2023-05-16T19:51:33.217Z,9.80
2023-05-16T19:54:26.285Z,8.77
2023-05-16T19:57:11.837Z,11.53
2023-05-16T19:59:56.974Z,8.60
2023-05-16T20:02:43.280Z,8.50
2023-05-16T20:05:29.300Z,8.50
2023-05-16T20:08:15.051Z,7.27
2023-05-16T20:11:00.365Z,8.67
2023-05-16T20:13:45.678Z,9.10
2023-05-16T20:16:31.061Z,8.37
2023-05-16T20:19:19.103Z,8.07
2023-05-16T20:22:04.965Z,6.27
2023-05-16T20:24:50.327Z,7.60
2023-05-16T20:27:35.753Z,5.37
2023-05-16T20:30:21.124Z,8.67
2023-05-16T20:33:06.630Z,7.23
2023-05-16T20:35:52.624Z,7.43
2023-05-16T20:38:38.921Z,10.93
2023-05-16T20:41:26.845Z,8.70
2023-05-16T20:44:12.095Z,7.10
2023-05-16T20:46:57.255Z,9.53
2023-05-16T20:49:42.583Z,7.47
2023-05-16T20:52:28.013Z,5.73
2023-05-16T20:55:13.467Z,6.50
2023-05-16T20:58:00.352Z,9.17
2023-05-16T21:00:48.138Z,6.97
2023-05-16T21:03:33.422Z,5.67
2023-05-16T21:06:18.884Z,6.40
2023-05-16T21:09:04.881Z,7.43
2023-05-16T21:11:50.226Z,7.27
2023-05-16T21:14:35.512Z,5.93
2023-05-16T21:17:21.411Z,4.37
2023-05-16T21:20:08.310Z,6.80
2023-05-16T21:22:53.862Z,6.87
2023-05-16T21:25:41.135Z,4.80
2023-05-16T21:28:26.577Z,4.73
2023-05-16T21:31:11.751Z,7.57
2023-05-16T21:33:57.038Z,6.40
2023-05-16T21:36:42.278Z,6.47
2023-05-16T21:39:27.672Z,4.90
2023-05-16T21:42:13.745Z,5.50
2023-05-16T21:44:59.220Z,5.20
2023-05-16T21:47:45.576Z,5.40
2023-05-16T21:50:31.259Z,5.80
2023-05-16T21:53:17.635Z,4.80
2023-05-16T21:56:03.312Z,6.97
2023-05-16T21:58:48.525Z,6.20
2023-05-16T22:01:33.969Z,4.80
2023-05-16T22:04:19.309Z,4.87
2023-05-16T22:07:05.255Z,4.80
2023-05-16T22:09:53.590Z,6.53
2023-05-16T22:12:39.189Z,6.70
2023-05-16T22:15:24.458Z,4.40
2023-05-16T22:18:10.330Z,6.47
2023-05-16T22:20:55.920Z,5.53
2023-05-16T22:23:41.547Z,6.13
2023-05-16T22:26:26.777Z,7.73
2023-05-16T22:29:11.995Z,4.90
2023-05-16T22:31:57.349Z,4.33
2023-05-16T22:34:42.564Z,5.23
2023-05-16T22:37:28.055Z,5.13
2023-05-16T22:40:13.201Z,4.17
2023-05-16T22:42:58.671Z,4.97
2023-05-16T22:45:44.037Z,3.97
2023-05-16T22:48:29.562Z,6.53
2023-05-16T22:51:15.522Z,5.63
2023-05-16T22:54:00.890Z,5.17
2023-05-16T22:56:46.126Z,5.87
2023-05-16T22:59:31.390Z,3.87
2023-05-16T23:02:16.714Z,5.27
2023-05-16T23:05:02.673Z,4.93
2023-05-16T23:07:48.062Z,6.10
2023-05-16T23:10:33.350Z,5.93
2023-05-16T23:13:18.673Z,5.90
2023-05-16T23:16:04.117Z,5.17
2023-05-16T23:18:49.621Z,6.80
2023-05-16T23:21:35.256Z,4.27
2023-05-16T23:24:20.707Z,5.37
2023-05-16T23:27:06.109Z,3.00
2023-05-16T23:29:51.448Z,4.80
2023-05-16T23:32:36.906Z,5.77
2023-05-16T23:35:22.242Z,4.73
2023-05-16T23:38:07.677Z,4.13
2023-05-16T23:40:53.021Z,3.53
2023-05-16T23:43:38.286Z,4.43
2023-05-16T23:46:23.449Z,5.67
2023-05-16T23:49:08.849Z,5.33
2023-05-16T23:51:57.855Z,5.60
2023-05-16T23:54:45.454Z,4.10
2023-05-16T23:57:30.664Z,3.83
